Time;durP1;ratioP1;P1;durP2;ratioP2;P2;SDS_P1;SDS_P2;PMS_P1;PMS_P2;Temp;Humidity;BMP_temperature;BMP_pressure;BME280_temperature;BME280_humidity;BME280_pressure;Samples;Min_cycle;Max_cycle;Signal;HPM_P1;HPM_P2
2021/03/20 00:02:56;;;;;;;12.58;6.97;;;;;;;-0.01;75.47;101025.67;2736706;87;21192;-64
2021/03/20 00:06:59;;;;;;;12.85;7.12;;;;;;;0.02;75.40;101024.75;2760291;86;21189;-65
2021/03/20 00:11:03;;;;;;;26.05;9.53;;;;;;;0.03;75.61;101026.47;2760774;85;21187;-65
2021/03/20 00:15:09;;;;;;;15.63;9.13;;;;;;;0.01;75.65;101031.75;2691024;88;21187;-64
2021/03/20 00:19:16;;;;;;;23.70;11.97;;;;;;;-0.02;75.61;101032.68;2737470;87;21212;-65
2021/03/20 00:23:21;;;;;;;21.27;12.63;;;;;;;-0.02;75.90;101033.98;2737630;87;21220;-65
2021/03/20 00:27:23;;;;;;;29.25;15.03;;;;;;;0.03;76.13;101037.80;2737555;87;21160;-66
2021/03/20 00:31:27;;;;;;;24.87;11.55;;;;;;;0.03;76.13;101039.11;2760975;86;21178;-64
2021/03/20 00:35:30;;;;;;;22.30;12.15;;;;;;;0.03;76.29;101043.47;2737248;87;21860;-65
2021/03/20 00:39:33;;;;;;;20.62;11.43;;;;;;;-0.01;76.36;101046.60;2760856;86;21142;-64
2021/03/20 00:43:37;;;;;;;18.00;11.53;;;;;;;-0.04;76.54;101045.38;2737252;87;21180;-66
2021/03/20 00:47:40;;;;;;;10.98;7.60;;;;;;;-0.03;76.71;101044.48;2760226;86;21719;-65
2021/03/20 00:51:43;;;;;;;11.35;8.05;;;;;;;-0.07;76.72;101041.10;2735502;86;21222;-65
2021/03/20 00:55:46;;;;;;;17.30;10.15;;;;;;;-0.15;76.82;101043.03;2734733;86;21687;-65
2021/03/20 00:59:49;;;;;;;18.50;9.58;;;;;;;-0.20;77.14;101050.98;2770381;85;21192;-65
2021/03/20 01:03:52;;;;;;;18.95;8.43;;;;;;;-0.23;77.25;101047.14;2734547;87;21162;-64
2021/03/20 01:07:55;;;;;;;18.32;9.30;;;;;;;-0.27;77.35;101049.89;2770431;85;21153;-66
2021/03/20 01:11:59;;;;;;;15.58;9.55;;;;;;;-0.26;77.42;101051.61;2770551;85;21176;-65
2021/03/20 01:16:03;;;;;;;18.10;10.58;;;;;;;-0.29;77.40;101049.92;2770166;85;21180;-65
2021/03/20 01:20:09;;;;;;;9.35;6.97;;;;;;;-0.33;77.38;101053.52;2734252;87;21186;-65
2021/03/20 01:24:12;;;;;;;13.38;9.45;;;;;;;-0.33;77.38;101052.20;2770269;85;21164;-65
2021/03/20 01:28:14;;;;;;;15.53;10.45;;;;;;;-0.37;77.34;101044.03;2734445;87;21146;-64
2021/03/20 01:32:18;;;;;;;19.02;9.70;;;;;;;-0.42;77.37;101051.09;2770387;85;21172;-64
2021/03/20 01:36:23;;;;;;;21.52;10.20;;;;;;;-0.52;77.42;101055.25;2734723;87;21230;-64
2021/03/20 01:40:31;;;;;;;10.90;6.58;;;;;;;-0.54;77.44;101051.82;2770555;85;21141;-65
2021/03/20 01:44:34;;;;;;;21.62;8.88;;;;;;;-0.58;77.29;101055.41;2770086;85;21512;-65
2021/03/20 01:48:38;;;;;;;12.35;8.95;;;;;;;-0.63;77.38;101049.40;2770228;85;21172;-65
2021/03/20 01:52:43;;;;;;;17.92;9.98;;;;;;;-0.65;77.05;101055.98;2734442;86;21211;-64
2021/03/20 01:56:47;;;;;;;10.48;8.43;;;;;;;-0.70;76.94;101053.91;2735017;87;21173;-64
2021/03/20 02:00:56;;;;;;;7.03;4.92;;;;;;;-0.76;76.80;101056.23;2757899;86;21164;-64
2021/03/20 02:04:58;;;;;;;18.82;8.90;;;;;;;-0.80;76.75;101054.55;2733723;87;21211;-65
2021/03/20 02:09:07;;;;;;;12.55;8.88;;;;;;;-0.84;77.02;101063.36;2758249;86;21246;-65
2021/03/20 02:13:24;;;;;;;17.00;11.00;;;;;;;-0.90;77.09;101066.95;2734763;87;21202;-64
2021/03/20 02:17:58;;;;;;;20.10;10.13;;;;;;;-0.94;77.35;101069.69;2755086;86;21152;-64
2021/03/20 02:22:08;;;;;;;14.55;7.95;;;;;;;-0.92;77.66;101073.12;2734685;87;21681;-64
2021/03/20 02:26:53;;;;;;;19.12;9.05;;;;;;;-0.92;77.72;101067.44;2735234;86;21177;-63
2021/03/20 02:31:52;;;;;;;19.17;8.50;;;;;;;-0.95;77.71;101072.73;2735069;86;21189;-65
2021/03/20 02:36:30;;;;;;;13.93;8.63;;;;;;;-0.95;77.72;101078.42;2735221;86;21178;-64
2021/03/20 02:40:42;;;;;;;;;;;;;;;-1.05;77.66;101073.84;2736982;87;21185;-64
2021/03/20 02:45:11;;;;;;;14.00;7.08;;;;;;;-1.09;77.58;101076.95;2734526;87;20412;-65
2021/03/20 02:49:31;;;;;;;14.87;6.50;;;;;;;-1.14;77.75;101078.80;2719086;85;21138;-64
2021/03/20 02:53:59;;;;;;;15.50;9.10;;;;;;;-1.16;77.87;101081.89;2734409;86;21146;-63
2021/03/20 02:58:12;;;;;;;17.12;7.45;;;;;;;-1.16;77.80;101074.06;2730292;85;21197;-65
2021/03/20 03:02:17;;;;;;;19.32;10.82;;;;;;;-1.20;77.75;101081.08;2729600;87;21162;-64
2021/03/20 03:06:28;;;;;;;11.03;5.72;;;;;;;-1.26;77.70;101081.65;2730069;87;21206;-64
2021/03/20 03:10:51;;;;;;;14.35;6.80;;;;;;;-1.27;77.61;101086.03;2730323;85;21215;-63
2021/03/20 03:15:15;;;;;;;14.10;7.20;;;;;;;-1.33;77.46;101089.61;2729940;87;21209;-63
2021/03/20 03:19:26;;;;;;;9.48;6.47;;;;;;;-1.41;77.38;101096.70;2730118;87;21114;-64
2021/03/20 03:23:34;;;;;;;9.33;7.08;;;;;;;-1.42;77.54;101100.21;2730116;87;21161;-63
2021/03/20 03:27:41;;;;;;;14.18;8.05;;;;;;;-1.40;77.55;101094.97;2730061;87;21161;-64
2021/03/20 03:31:52;;;;;;;7.97;6.12;;;;;;;-1.45;77.26;101105.06;2730186;87;21620;-63
2021/03/20 03:36:04;;;;;;;15.20;8.40;;;;;;;-1.49;77.37;101110.36;2759682;86;21169;-65
2021/03/20 03:40:13;;;;;;;18.15;10.55;;;;;;;-1.60;77.14;101115.77;2762186;86;21161;-65
2021/03/20 03:44:16;;;;;;;15.05;8.33;;;;;;;-1.70;77.38;101116.81;2704306;87;21170;-63
2021/03/20 03:48:22;;;;;;;22.60;8.93;;;;;;;-1.77;77.62;101117.35;2730116;87;21213;-65
2021/03/20 03:52:26;;;;;;;15.32;9.55;;;;;;;-1.80;77.71;101131.75;2730367;87;21121;-64
2021/03/20 03:57:03;;;;;;;10.55;8.18;;;;;;;-1.78;78.03;101123.45;2727483;87;21233;-64
2021/03/20 04:01:14;;;;;;;11.00;7.37;;;;;;;-1.74;77.83;101127.77;2711330;87;21145;-65
2021/03/20 04:05:51;;;;;;;15.38;7.08;;;;;;;-1.78;77.77;101133.47;2683982;88;21191;-65
2021/03/20 04:10:39;;;;;;;14.87;7.78;;;;;;;-1.83;77.51;101133.12;2684353;88;21620;-64
2021/03/20 04:15:05;;;;;;;14.93;7.47;;;;;;;-1.87;77.62;101139.70;2645537;90;21195;-64
2021/03/20 04:20:03;;;;;;;11.60;6.60;;;;;;;-1.93;77.61;101146.33;2679980;88;21158;-63
2021/03/20 04:24:31;;;;;;;14.90;6.65;;;;;;;-1.87;77.95;101142.73;2679855;88;21186;-63
2021/03/20 04:28:53;;;;;;;11.05;6.42;;;;;;;-1.83;78.05;101147.46;2679761;88;21221;-64
2021/03/20 04:33:04;;;;;;;15.50;7.30;;;;;;;-1.73;78.09;101160.33;2679922;88;22344;-63
2021/03/20 04:37:16;;;;;;;20.72;11.30;;;;;;;-1.71;77.32;101149.88;2679689;88;21218;-63
2021/03/20 04:41:20;;;;;;;13.50;8.90;;;;;;;-1.70;77.52;101158.13;2679310;88;21182;-64
2021/03/20 04:45:34;;;;;;;15.23;7.08;;;;;;;-1.63;77.57;101162.34;2680218;88;21556;-63
2021/03/20 04:49:56;;;;;;;15.53;6.97;;;;;;;-1.75;76.61;101167.78;2680188;88;21217;-64
2021/03/20 04:54:09;;;;;;;11.00;8.30;;;;;;;-1.92;77.18;101167.61;2679833;88;21201;-64
2021/03/20 04:58:27;;;;;;;11.30;6.50;;;;;;;-2.12;77.78;101170.50;2717505;85;21635;-64
2021/03/20 05:03:15;;;;;;;13.08;7.25;;;;;;;-2.23;78.34;101166.75;2757203;86;21169;-63
2021/03/20 05:07:19;;;;;;;10.05;6.08;;;;;;;-2.29;78.96;101170.76;2762336;86;21182;-64
2021/03/20 05:11:36;;;;;;;9.38;6.80;;;;;;;-2.24;79.15;101169.40;2729971;87;21197;-63
2021/03/20 05:15:39;;;;;;;12.00;6.62;;;;;;;-2.24;78.95;101178.06;2762246;86;21189;-63
2021/03/20 05:19:42;;;;;;;16.45;8.70;;;;;;;-2.15;79.64;101178.38;2762377;86;21212;-62
2021/03/20 05:23:45;;;;;;;11.73;7.65;;;;;;;-1.69;79.77;101178.11;2761862;86;21137;-63
2021/03/20 05:27:49;;;;;;;12.05;6.35;;;;;;;-1.27;79.23;101183.92;2762648;86;21635;-63
2021/03/20 05:31:52;;;;;;;9.03;7.78;;;;;;;-0.77;79.07;101181.23;2762265;86;21142;-63
2021/03/20 05:35:56;;;;;;;10.45;6.05;;;;;;;-0.19;77.50;101186.54;2761946;86;21172;-63
2021/03/20 05:39:59;;;;;;;15.68;6.92;;;;;;;0.25;75.96;101199.02;2762247;86;21180;-63
2021/03/20 05:44:36;;;;;;;12.85;6.25;;;;;;;0.60;75.42;101196.89;2730077;87;21194;-64
2021/03/20 05:48:50;;;;;;;11.60;7.67;;;;;;;0.98;73.71;101197.20;2730205;87;21188;-64
2021/03/20 05:53:21;;;;;;;10.23;8.80;;;;;;;1.07;72.08;101205.23;2760874;86;21165;-61
2021/03/20 05:57:46;;;;;;;11.55;8.28;;;;;;;1.21;71.51;101203.56;2730823;86;21226;-65
2021/03/20 06:02:16;;;;;;;14.98;8.53;;;;;;;1.49;71.57;101202.76;2769540;85;21209;-67
2021/03/20 06:06:53;;;;;;;17.07;9.33;;;;;;;1.58;71.38;101202.10;2770543;85;21157;-65
2021/03/20 06:11:03;;;;;;;10.18;6.25;;;;;;;1.67;71.30;101207.05;2770496;85;21176;-64
2021/03/20 06:15:29;;;;;;;11.18;8.05;;;;;;;1.96;69.80;101215.80;2748889;85;21630;-66
2021/03/20 06:20:23;;;;;;;11.60;7.15;;;;;;;1.96;69.90;101219.73;2760426;85;21184;-66
2021/03/20 06:24:57;;;;;;;7.58;4.40;;;;;;;1.85;68.08;101227.49;2760405;85;21232;-67
2021/03/20 06:29:05;;;;;;;11.50;7.75;;;;;;;1.73;68.65;101229.16;2760277;85;21222;-65
2021/03/20 06:33:12;;;;;;;12.47;6.50;;;;;;;1.25;69.29;101228.78;2760361;86;21140;-67
2021/03/20 06:37:32;;;;;;;9.83;6.83;;;;;;;1.20;68.89;101237.23;2760070;86;21156;-66
2021/03/20 06:41:46;;;;;;;4.75;4.25;;;;;;;0.89;69.79;101241.13;2760129;85;21148;-65
2021/03/20 06:45:51;;;;;;;9.73;6.62;;;;;;;0.89;69.79;101241.13;2760227;85;21152;-65
2021/03/20 06:50:19;;;;;;;13.35;6.00;;;;;;;1.01;69.80;101238.62;2760207;85;21555;-65
2021/03/20 06:54:23;;;;;;;5.12;4.35;;;;;;;1.01;69.30;101230.77;2760402;85;21160;-64
2021/03/20 06:58:35;;;;;;;11.73;6.28;;;;;;;1.13;69.91;101235.66;2760511;86;21157;-63
2021/03/20 07:03:11;;;;;;;9.05;5.70;;;;;;;1.09;68.83;101235.34;2760161;86;21149;-64
2021/03/20 07:07:35;;;;;;;6.80;4.58;;;;;;;1.14;69.10;101227.77;2760167;86;21192;-65
2021/03/20 07:11:46;;;;;;;8.33;5.25;;;;;;;1.04;68.39;101230.68;2739975;86;21192;-65
2021/03/20 07:16:18;;;;;;;9.78;6.70;;;;;;;1.15;69.44;101223.37;2757947;86;21679;-64
2021/03/20 07:20:27;;;;;;;9.65;7.87;;;;;;;1.49;68.47;101221.11;2688483;88;21173;-65
2021/03/20 07:24:44;;;;;;;6.90;4.80;;;;;;;1.82;67.93;101223.66;2764781;86;21204;-65
2021/03/20 07:28:57;;;;;;;12.40;6.85;;;;;;;1.95;66.45;101219.33;2764511;86;21618;-64
2021/03/20 07:33:04;;;;;;;12.60;6.10;;;;;;;2.08;66.69;101237.73;2772276;84;21188;-63
2021/03/20 07:37:27;;;;;;;10.35;6.72;;;;;;;2.12;66.34;101231.48;2773049;85;21156;-63
2021/03/20 07:41:54;;;;;;;6.37;4.53;;;;;;;2.12;66.34;101231.48;2775328;85;21214;-63
2021/03/20 07:46:16;;;;;;;6.12;4.75;;;;;;;2.62;66.37;101254.86;2772333;85;21172;-63
2021/03/20 07:50:24;;;;;;;11.75;5.20;;;;;;;2.69;64.45;101257.67;2794602;85;21172;-62
2021/03/20 07:54:37;;;;;;;10.20;4.05;;;;;;;2.94;63.99;101246.80;2795104;85;21172;-62
2021/03/20 07:58:50;;;;;;;10.58;4.62;;;;;;;3.05;63.94;101238.53;2795227;85;21639;-63
2021/03/20 08:02:56;;;;;;;23.07;11.33;;;;;;;3.39;62.57;101249.17;2772914;85;21156;-62
2021/03/20 08:06:58;;;;;;;8.30;4.70;;;;;;;3.62;62.56;101252.72;2795683;85;21194;-62
2021/03/20 08:11:02;;;;;;;10.78;4.37;;;;;;;3.73;63.75;101243.95;2775865;84;21188;-61
2021/03/20 08:15:08;;;;;;;9.53;3.67;;;;;;;3.70;62.25;101245.38;2732771;87;21174;-61
2021/03/20 08:19:18;;;;;;;11.80;5.62;;;;;;;3.51;62.93;101243.91;2732740;87;21199;-61
2021/03/20 08:23:51;;;;;;;11.97;5.17;;;;;;;3.27;62.23;101252.62;2732443;87;21225;-62
2021/03/20 08:28:06;;;;;;;3.67;2.95;;;;;;;3.19;63.58;101259.08;2732483;87;21197;-62
2021/03/20 08:32:50;;;;;;;6.45;3.85;;;;;;;3.07;61.34;101265.62;2764774;86;21165;-64
2021/03/20 08:37:24;;;;;;;7.75;3.52;;;;;;;3.21;62.44;101261.19;2732705;87;21196;-63
2021/03/20 08:42:08;;;;;;;6.10;2.72;;;;;;;3.65;62.20;101264.00;2764893;86;21193;-63
2021/03/20 08:46:22;;;;;;;6.03;3.62;;;;;;;3.83;60.35;101265.07;2733037;87;21205;-62
2021/03/20 08:50:46;;;;;;;8.48;3.35;;;;;;;3.76;60.12;101261.41;2764634;86;21611;-64
2021/03/20 08:54:59;;;;;;;4.40;3.08;;;;;;;3.47;60.31;101264.68;2763601;85;21181;-63
2021/03/20 08:59:07;;;;;;;5.00;3.92;;;;;;;3.00;59.82;101272.41;2763551;85;21572;-62
2021/03/20 09:03:17;;;;;;;4.72;2.95;;;;;;;2.68;60.62;101273.50;2763843;85;21137;-62
2021/03/20 09:07:38;;;;;;;7.42;3.77;;;;;;;2.48;61.73;101275.45;2763912;85;21177;-62
2021/03/20 09:12:05;;;;;;;6.87;4.65;;;;;;;2.26;61.40;101274.38;2763863;85;21145;-62
2021/03/20 09:16:40;;;;;;;4.35;3.00;;;;;;;2.25;60.93;101273.95;2763671;86;21657;-62
2021/03/20 09:20:51;;;;;;;3.87;2.62;;;;;;;2.28;61.91;101273.87;2763874;86;21208;-62
2021/03/20 09:25:02;;;;;;;3.25;2.55;;;;;;;2.20;61.08;101275.02;2764011;86;21210;-63
2021/03/20 09:29:17;;;;;;;4.70;2.10;;;;;;;2.04;60.85;101278.55;2747359;86;21196;-63
2021/03/20 09:33:32;;;;;;;5.08;3.02;;;;;;;2.04;60.85;101278.55;2748313;85;21184;-63
2021/03/20 09:37:46;;;;;;;4.28;3.75;;;;;;;2.00;61.46;101285.67;2749785;86;21157;-63
2021/03/20 09:41:50;;;;;;;3.80;2.42;;;;;;;2.00;61.59;101288.30;2750603;86;21184;-61
2021/03/20 09:46:35;;;;;;;6.10;2.22;;;;;;;2.23;61.68;101287.58;2726874;87;21169;-62
2021/03/20 09:50:38;;;;;;;5.00;3.10;;;;;;;2.37;61.13;101294.17;2726834;87;21191;-64
2021/03/20 09:54:43;;;;;;;7.85;2.75;;;;;;;2.38;60.02;101292.83;2722669;87;21161;-63
2021/03/20 10:02:59;;;;;;;3.80;2.40;;;;;;;2.50;59.76;101294.64;2872249;82;21181;-62
2021/03/20 10:07:26;;;;;;;5.42;2.15;;;;;;;3.17;59.01;101289.38;2873304;82;21153;-61
2021/03/20 10:11:38;;;;;;;2.90;1.72;;;;;;;3.17;59.01;101289.38;2873279;82;21165;-62
2021/03/20 10:16:02;;;;;;;2.17;1.95;;;;;;;3.20;57.28;101311.63;2873264;82;21595;-60
2021/03/20 10:20:11;;;;;;;4.08;2.47;;;;;;;3.04;58.06;101309.11;2873488;82;21196;-61
2021/03/20 10:24:26;;;;;;;1.52;1.35;;;;;;;3.06;57.45;101313.86;2873156;82;21156;-61
2021/03/20 10:28:39;;;;;;;2.15;1.95;;;;;;;3.20;57.81;101318.20;2873067;82;21157;-60
2021/03/20 10:33:07;;;;;;;2.67;2.47;;;;;;;3.35;57.29;101315.48;2873198;82;21622;-60
2021/03/20 10:37:12;;;;;;;1.95;1.40;;;;;;;3.19;57.86;101291.50;2869634;82;21141;-61
2021/03/20 10:41:24;;;;;;;4.45;2.87;;;;;;;3.28;57.53;101310.89;2873251;82;21180;-59
2021/03/20 10:45:34;;;;;;;3.95;1.40;;;;;;;3.38;58.95;101306.64;2872986;82;21161;-61
2021/03/20 10:49:40;;;;;;;3.60;1.30;;;;;;;3.42;57.27;101313.02;2891483;81;21196;-61
2021/03/20 10:53:53;;;;;;;4.10;2.27;;;;;;;3.25;55.60;101311.47;2825987;84;21571;-62
2021/03/20 10:57:57;;;;;;;3.55;2.20;;;;;;;3.06;55.41;101309.91;2852971;82;21185;-62
2021/03/20 11:02:30;;;;;;;2.92;1.30;;;;;;;3.07;55.21;101303.74;2856130;83;21172;-60
2021/03/20 11:06:33;;;;;;;2.45;1.80;;;;;;;3.35;54.08;101297.55;2825508;83;21138;-63
2021/03/20 11:10:43;;;;;;;2.27;1.40;;;;;;;3.76;55.06;101289.05;2857586;83;21191;-63
2021/03/20 11:14:55;;;;;;;6.62;3.42;;;;;;;3.89;53.39;101281.54;2789846;83;21640;-62
2021/03/20 11:19:09;;;;;;;5.87;4.00;;;;;;;3.81;54.37;101283.14;2791138;84;22453;-63
2021/03/20 11:23:36;;;;;;;2.50;1.50;;;;;;;3.71;54.66;101276.92;2807993;83;21165;-61
2021/03/20 11:27:40;;;;;;;;;;;;;;;3.60;52.09;101275.13;2789152;83;21177;-61
2021/03/20 11:32:02;;;;;;;7.30;3.72;;;;;;;3.48;53.76;101278.23;2804955;83;20206;-60
2021/03/20 11:36:11;;;;;;;2.45;1.22;;;;;;;3.52;52.83;101266.67;2763034;86;21576;-61
2021/03/20 11:40:43;;;;;;;3.00;2.08;;;;;;;3.74;52.89;101261.48;2763022;86;21588;-62
2021/03/20 11:44:49;;;;;;;8.23;4.00;;;;;;;3.85;52.86;101255.34;2763124;86;21157;-61
2021/03/20 11:49:20;;;;;;;6.00;1.87;;;;;;;3.93;53.52;101248.47;2760452;86;21173;-59
2021/03/20 11:53:45;;;;;;;5.40;2.55;;;;;;;3.97;53.78;101251.84;2763170;86;21161;-60
2021/03/20 11:57:50;;;;;;;5.95;2.25;;;;;;;4.09;53.63;101239.50;2789057;83;21167;-60
2021/03/20 12:01:53;;;;;;;4.73;3.03;;;;;;;4.08;53.08;101246.16;2832155;82;21182;-62
2021/03/20 12:06:19;;;;;;;2.20;2.00;;;;;;;3.95;53.50;101245.79;2852658;82;21142;-60
2021/03/20 12:10:26;;;;;;;3.20;2.83;;;;;;;3.82;53.62;101229.58;2815351;84;21680;-60
2021/03/20 12:14:39;;;;;;;4.70;2.08;;;;;;;3.84;53.08;101228.62;2769452;84;21185;-63
2021/03/20 12:18:42;;;;;;;4.53;2.40;;;;;;;3.99;54.31;101222.37;2772615;85;21224;-61
2021/03/20 12:22:49;;;;;;;3.02;2.20;;;;;;;4.32;54.28;101221.92;2791330;83;21183;-60
2021/03/20 12:26:52;;;;;;;4.15;2.55;;;;;;;4.40;54.54;101215.02;2773419;85;21151;-62
2021/03/20 12:31:16;;;;;;;4.67;2.80;;;;;;;4.25;53.83;101208.16;2730304;87;21579;-61
2021/03/20 12:35:24;;;;;;;8.68;2.83;;;;;;;4.25;54.73;101199.39;2778190;85;21630;-60
2021/03/20 12:39:27;;;;;;;3.30;2.87;;;;;;;4.64;55.91;101202.61;2777233;85;22259;-60
2021/03/20 12:43:38;;;;;;;2.87;2.65;;;;;;;4.84;53.50;101187.72;2777489;85;21187;-61
2021/03/20 12:47:43;;;;;;;7.70;4.65;;;;;;;4.98;55.88;101180.52;2817176;84;21168;-60
2021/03/20 12:51:53;;;;;;;7.42;2.95;;;;;;;5.08;55.69;101184.92;2841781;83;21177;-61
2021/03/20 12:55:56;;;;;;;4.92;2.95;;;;;;;4.98;55.57;101183.16;2821521;84;21149;-62
2021/03/20 12:59:59;;;;;;;4.97;2.77;;;;;;;4.87;54.57;101175.72;2841228;83;21138;-62
2021/03/20 13:04:04;;;;;;;3.35;3.02;;;;;;;4.88;55.00;101179.22;2821115;84;21172;-62
2021/03/20 13:08:08;;;;;;;3.42;3.12;;;;;;;4.89;54.73;101176.98;2841882;83;21137;-63
2021/03/20 13:12:14;;;;;;;5.00;2.30;;;;;;;5.01;54.73;101176.42;2821311;84;21607;-60
2021/03/20 13:16:21;;;;;;;5.65;2.92;;;;;;;5.17;53.78;101161.23;2841791;83;21191;-62
2021/03/20 13:20:27;;;;;;;3.00;2.58;;;;;;;5.35;54.57;101159.56;2821480;84;21180;-61
2021/03/20 13:24:31;;;;;;;4.70;1.65;;;;;;;5.61;52.49;101158.80;2819295;83;21642;-60
2021/03/20 13:28:35;;;;;;;4.03;3.50;;;;;;;5.86;53.17;101159.34;2815453;83;21183;-61
2021/03/20 13:32:41;;;;;;;3.25;2.83;;;;;;;5.93;55.17;101160.38;2855056;83;21161;-63
2021/03/20 13:36:47;;;;;;;4.83;2.92;;;;;;;5.99;55.91;101156.98;2853974;82;21588;-61
2021/03/20 13:40:54;;;;;;;5.33;3.45;;;;;;;6.01;55.56;101159.56;2854366;82;21125;-59
2021/03/20 13:44:57;;;;;;;4.58;3.02;;;;;;;5.81;57.00;101160.03;2826533;83;22220;-60
2021/03/20 13:49:00;;;;;;;5.55;2.95;;;;;;;5.47;55.33;101165.57;2777012;85;21164;-60
2021/03/20 13:53:08;;;;;;;5.45;4.08;;;;;;;5.10;55.96;101160.20;2777528;85;21160;-60
2021/03/20 13:57:10;;;;;;;4.28;3.22;;;;;;;4.84;58.10;101163.55;2777296;85;21144;-61
2021/03/20 14:01:13;;;;;;;12.82;8.40;;;;;;;4.61;57.71;101167.61;2775726;85;21157;-60
2021/03/20 14:05:17;;;;;;;5.35;3.75;;;;;;;4.43;58.48;101167.02;2771797;85;21113;-61
2021/03/20 14:09:20;;;;;;;5.45;3.52;;;;;;;4.06;58.82;101171.17;2788418;83;21662;-60
2021/03/20 14:13:24;;;;;;;4.15;2.77;;;;;;;3.90;59.70;101161.72;2818767;84;21173;-60
2021/03/20 14:17:27;;;;;;;5.85;3.80;;;;;;;4.00;60.11;101163.05;2822120;84;21153;-59
2021/03/20 14:21:32;;;;;;;3.85;3.02;;;;;;;4.17;60.24;101161.52;2821698;84;21634;-59
2021/03/20 14:25:36;;;;;;;4.75;3.50;;;;;;;4.25;58.64;101153.30;2820747;84;21172;-60
2021/03/20 14:29:40;;;;;;;6.33;4.22;;;;;;;4.29;57.38;101156.20;2821861;84;21188;-60
2021/03/20 14:33:43;;;;;;;2.12;1.92;;;;;;;4.32;59.35;101148.16;2790700;82;21208;-60
2021/03/20 14:37:47;;;;;;;4.00;3.02;;;;;;;4.11;58.60;101152.08;2809871;83;21622;-60
2021/03/20 14:41:50;;;;;;;4.65;3.85;;;;;;;3.99;60.48;101140.75;2807545;84;21462;-60
2021/03/20 14:45:54;;;;;;;4.53;2.77;;;;;;;3.97;61.04;101136.02;2806700;84;21176;-61
2021/03/20 14:49:58;;;;;;;3.33;3.02;;;;;;;3.95;61.91;101134.74;2815755;82;21203;-60
2021/03/20 14:54:01;;;;;;;4.20;3.42;;;;;;;4.04;61.93;101133.52;2821787;83;21731;-60
2021/03/20 14:58:05;;;;;;;4.25;3.67;;;;;;;4.10;61.90;101126.67;2821804;83;22082;-60
2021/03/20 15:02:08;;;;;;;4.17;3.33;;;;;;;4.28;62.40;101124.19;2833907;83;21181;-61
2021/03/20 15:06:12;;;;;;;5.40;4.28;;;;;;;4.62;61.77;101122.76;2795312;85;21207;-60
2021/03/20 15:10:39;;;;;;;6.40;4.15;;;;;;;4.72;63.62;101120.58;2771669;85;22242;-59
2021/03/20 15:14:42;;;;;;;5.35;4.05;;;;;;;4.67;64.88;101118.13;2844891;83;21165;-60
2021/03/20 15:18:44;;;;;;;6.00;4.55;;;;;;;4.47;64.97;101120.78;2825101;84;22181;-60
2021/03/20 15:22:48;;;;;;;8.80;4.78;;;;;;;4.34;64.95;101111.23;2840492;83;21208;-58
2021/03/20 15:26:51;;;;;;;3.90;3.33;;;;;;;4.45;66.02;101102.87;2770302;85;21202;-60
2021/03/20 15:30:57;;;;;;;5.60;4.33;;;;;;;4.63;66.50;101103.86;2857472;83;21173;-60
2021/03/20 15:35:00;;;;;;;4.33;3.92;;;;;;;4.86;64.67;101101.50;2800589;85;21151;-59
2021/03/20 15:39:08;;;;;;;6.83;2.98;;;;;;;4.92;64.44;101098.61;2784783;83;21936;-60
2021/03/20 15:43:17;;;;;;;4.72;3.12;;;;;;;4.67;62.72;101101.48;2842060;83;21185;-60
2021/03/20 15:47:20;;;;;;;7.80;4.85;;;;;;;4.46;62.24;101092.27;2821913;84;21721;-60
2021/03/20 15:51:24;;;;;;;16.42;8.83;;;;;;;4.33;62.57;101081.86;2842098;83;21161;-60
2021/03/20 15:55:30;;;;;;;9.30;6.17;;;;;;;4.17;62.87;101084.30;2779336;83;21184;-61
2021/03/20 15:59:33;;;;;;;8.10;5.12;;;;;;;4.07;63.32;101079.88;2821728;84;21152;-59
2021/03/20 16:03:37;;;;;;;9.08;5.40;;;;;;;3.99;63.46;101081.52;2821503;84;21598;-61
2021/03/20 16:07:41;;;;;;;8.13;6.20;;;;;;;3.92;63.63;101076.09;2821580;84;21170;-60
2021/03/20 16:11:44;;;;;;;10.53;7.10;;;;;;;3.89;64.54;101080.17;2855747;83;21714;-60
2021/03/20 16:15:50;;;;;;;13.35;7.85;;;;;;;3.92;64.32;101076.09;2857694;83;21164;-60
2021/03/20 16:19:53;;;;;;;11.12;6.87;;;;;;;3.83;64.27;101072.06;2840260;82;21647;-60
2021/03/20 16:23:56;;;;;;;10.15;7.97;;;;;;;3.70;64.76;101070.39;2799633;84;21613;-60
2021/03/20 16:28:01;;;;;;;6.78;4.37;;;;;;;3.55;66.06;101071.43;2800874;85;21173;-60
2021/03/20 16:32:06;;;;;;;8.98;5.55;;;;;;;3.39;66.14;101069.84;2799307;84;21729;-60
2021/03/20 16:36:14;;;;;;;8.73;7.12;;;;;;;3.19;66.62;101069.31;2801164;84;21145;-60
2021/03/20 16:40:20;;;;;;;7.95;4.85;;;;;;;2.97;67.44;101066.19;2831282;83;21148;-59
2021/03/20 16:44:21;;;;;;;7.67;6.70;;;;;;;2.78;67.34;101062.53;2853009;83;21592;-60
2021/03/20 16:48:26;;;;;;;6.30;4.92;;;;;;;2.63;67.49;101056.92;2853091;83;21129;-60
2021/03/20 16:52:29;;;;;;;10.15;5.87;;;;;;;2.53;67.95;101053.77;2819077;83;21177;-61
2021/03/20 16:56:33;;;;;;;10.08;7.20;;;;;;;2.56;68.55;101047.56;2818980;84;21136;-62
2021/03/20 17:00:45;;;;;;;14.75;6.20;;;;;;;2.57;68.51;101043.55;2839953;82;21140;-61
2021/03/20 17:04:48;;;;;;;9.30;6.72;;;;;;;2.56;68.22;101036.58;2818031;82;21176;-61
2021/03/20 17:08:54;;;;;;;;;;;;;;;2.48;68.45;101037.33;2825791;84;21642;-61
2021/03/20 17:12:58;;;;;;;9.83;6.60;;;;;;;2.44;68.67;101038.32;2821108;84;20205;-61
2021/03/20 17:17:02;;;;;;;13.58;8.00;;;;;;;2.39;69.46;101031.08;2841907;83;21560;-61
2021/03/20 17:21:09;;;;;;;9.73;5.92;;;;;;;2.32;70.14;101034.37;2821010;84;21642;-61
2021/03/20 17:25:14;;;;;;;13.95;6.12;;;;;;;2.26;70.72;101028.03;2840460;83;21197;-60
2021/03/20 17:29:17;;;;;;;18.75;6.42;;;;;;;2.18;71.16;101023.52;2841691;83;21125;-62
2021/03/20 17:33:22;;;;;;;8.65;5.58;;;;;;;2.11;71.57;101016.30;2841950;83;21188;-62
2021/03/20 17:37:25;;;;;;;9.13;5.20;;;;;;;1.94;72.02;100995.44;2821590;84;21164;-60
2021/03/20 17:41:29;;;;;;;11.22;4.95;;;;;;;1.94;72.02;100995.44;2812190;83;21570;-59
2021/03/20 17:45:34;;;;;;;11.22;6.95;;;;;;;2.04;72.13;101013.47;2776621;84;21208;-59
2021/03/20 17:49:40;;;;;;;13.50;7.45;;;;;;;1.98;72.39;101001.45;2822203;82;21176;-61
2021/03/20 17:53:46;;;;;;;9.68;6.03;;;;;;;1.97;72.28;101003.67;2822932;82;21125;-60
2021/03/20 17:57:49;;;;;;;15.72;7.65;;;;;;;1.98;71.88;100998.82;2805709;82;21145;-60
2021/03/20 18:01:52;;;;;;;12.33;6.72;;;;;;;1.97;72.05;100998.42;2823682;82;21185;-61
2021/03/20 18:05:58;;;;;;;15.48;9.05;;;;;;;2.01;72.20;100988.21;2827466;84;21156;-59
2021/03/20 18:10:01;;;;;;;10.98;7.83;;;;;;;2.00;72.21;100986.50;2822715;84;21873;-59
2021/03/20 18:14:04;;;;;;;13.65;7.20;;;;;;;1.97;72.23;100985.30;2824485;84;21492;-59
2021/03/20 18:18:07;;;;;;;17.87;12.58;;;;;;;1.90;72.40;100979.84;2829467;84;21564;-59
2021/03/20 18:22:11;;;;;;;11.65;9.35;;;;;;;1.84;72.44;100975.22;2829764;84;21176;-60
2021/03/20 18:26:15;;;;;;;25.23;10.38;;;;;;;1.77;72.24;100976.78;2828205;83;21157;-60
2021/03/20 18:30:24;;;;;;;14.55;8.43;;;;;;;1.73;72.69;100974.71;2829491;84;21168;-60
2021/03/20 18:34:27;;;;;;;12.03;8.68;;;;;;;1.69;73.19;100974.42;2829424;83;21161;-60
2021/03/20 18:38:36;;;;;;;10.20;8.00;;;;;;;1.67;73.45;100976.23;2827947;83;21591;-58
2021/03/20 18:42:39;;;;;;;10.23;7.58;;;;;;;1.58;73.52;100970.84;2816402;84;21185;-60
2021/03/20 18:46:43;;;;;;;18.02;10.15;;;;;;;1.58;73.52;100970.84;2818873;84;21167;-59
2021/03/20 18:50:48;;;;;;;15.25;8.33;;;;;;;1.55;73.38;100970.95;2790234;84;21202;-59
2021/03/20 18:54:52;;;;;;;10.15;8.20;;;;;;;1.55;73.09;100969.64;2847096;83;21181;-59
2021/03/20 18:58:55;;;;;;;15.90;10.95;;;;;;;1.52;72.44;100965.34;2781821;85;21546;-60
2021/03/20 19:02:59;;;;;;;16.70;11.25;;;;;;;1.36;72.08;100939.22;2822273;83;21632;-60
2021/03/20 19:07:05;;;;;;;14.60;11.05;;;;;;;1.45;72.25;100957.73;2813367;84;21189;-60
2021/03/20 19:11:12;;;;;;;18.45;10.28;;;;;;;1.32;72.76;100938.93;2771015;83;21640;-61
2021/03/20 19:15:18;;;;;;;16.60;11.63;;;;;;;1.32;72.76;100938.93;2818724;84;21168;-62
2021/03/20 19:19:26;;;;;;;24.47;12.23;;;;;;;1.36;72.34;100941.84;2820003;84;21160;-61
2021/03/20 19:23:32;;;;;;;17.27;11.88;;;;;;;1.43;72.21;100953.86;2818571;84;21221;-61
2021/03/20 19:27:36;;;;;;;25.85;12.03;;;;;;;1.43;72.25;100952.08;2817535;84;30593;-61
2021/03/20 19:31:40;;;;;;;13.28;9.13;;;;;;;1.46;72.28;100944.58;2821934;84;21171;-61
2021/03/20 19:35:44;;;;;;;18.85;9.83;;;;;;;1.43;72.08;100936.82;2822071;84;21160;-61